sensor_id;sensor_type;location;lat;lon;timestamp;P1;durP1;ratioP1;P2;durP2;ratioP2
10831;SDS011;5469;48.574;8.768;2023-05-07T00:02:04;0.63;;;0.63;;
10831;SDS011;5469;48.574;8.768;2023-05-07T00:04:39;0.73;;;0.73;;
10831;SDS011;5469;48.574;8.768;2023-05-07T00:07:12;0.70;;;0.70;;
10831;SDS011;5469;48.574;8.768;2023-05-07T00:09:45;0.77;;;0.70;;
10831;SDS011;5469;48.574;8.768;2023-05-07T00:12:19;0.67;;;0.60;;
10831;SDS011;5469;48.574;8.768;2023-05-07T00:14:52;0.70;;;0.70;;
10831;SDS011;5469;48.574;8.768;2023-05-07T00:17:25;1.10;;;1.00;;
10831;SDS011;5469;48.574;8.768;2023-05-07T00:20:00;0.97;;;0.83;;
10831;SDS011;5469;48.574;8.768;2023-05-07T00:22:34;1.43;;;1.33;;
10831;SDS011;5469;48.574;8.768;2023-05-07T00:25:08;0.90;;;0.90;;
10831;SDS011;5469;48.574;8.768;2023-05-07T00:27:41;1.47;;;1.00;;
10831;SDS011;5469;48.574;8.768;2023-05-07T00:30:15;0.63;;;0.63;;
10831;SDS011;5469;48.574;8.768;2023-05-07T00:32:48;1.13;;;0.73;;
10831;SDS011;5469;48.574;8.768;2023-05-07T00:35:24;0.73;;;0.73;;
10831;SDS011;5469;48.574;8.768;2023-05-07T00:37:57;1.00;;;0.90;;
10831;SDS011;5469;48.574;8.768;2023-05-07T00:40:30;1.40;;;0.70;;
10831;SDS011;5469;48.574;8.768;2023-05-07T00:43:04;1.20;;;0.90;;
10831;SDS011;5469;48.574;8.768;2023-05-07T00:45:37;0.93;;;0.70;;
10831;SDS011;5469;48.574;8.768;2023-05-07T00:48:11;0.60;;;0.60;;
10831;SDS011;5469;48.574;8.768;2023-05-07T00:50:46;1.63;;;0.90;;
10831;SDS011;5469;48.574;8.768;2023-05-07T00:53:20;0.90;;;0.80;;
10831;SDS011;5469;48.574;8.768;2023-05-07T00:55:54;1.13;;;0.80;;
10831;SDS011;5469;48.574;8.768;2023-05-07T00:58:28;1.10;;;0.77;;
10831;SDS011;5469;48.574;8.768;2023-05-07T01:01:02;0.70;;;0.60;;
10831;SDS011;5469;48.574;8.768;2023-05-07T01:03:35;0.70;;;0.70;;
10831;SDS011;5469;48.574;8.768;2023-05-07T01:06:10;0.77;;;0.77;;
10831;SDS011;5469;48.574;8.768;2023-05-07T01:08:48;1.43;;;0.60;;
10831;SDS011;5469;48.574;8.768;2023-05-07T01:11:24;4.20;;;0.80;;
10831;SDS011;5469;48.574;8.768;2023-05-07T01:13:58;0.70;;;0.70;;
10831;SDS011;5469;48.574;8.768;2023-05-07T01:16:32;0.90;;;0.90;;
10831;SDS011;5469;48.574;8.768;2023-05-07T01:19:06;0.70;;;0.70;;
10831;SDS011;5469;48.574;8.768;2023-05-07T01:21:45;1.23;;;1.00;;
10831;SDS011;5469;48.574;8.768;2023-05-07T01:24:21;1.00;;;0.90;;
10831;SDS011;5469;48.574;8.768;2023-05-07T01:26:54;0.83;;;0.83;;
10831;SDS011;5469;48.574;8.768;2023-05-07T01:29:28;0.80;;;0.80;;
10831;SDS011;5469;48.574;8.768;2023-05-07T01:32:01;0.90;;;0.80;;
10831;SDS011;5469;48.574;8.768;2023-05-07T01:34:36;1.17;;;0.73;;
10831;SDS011;5469;48.574;8.768;2023-05-07T01:37:10;1.00;;;0.90;;
10831;SDS011;5469;48.574;8.768;2023-05-07T01:39:45;0.70;;;0.67;;
10831;SDS011;5469;48.574;8.768;2023-05-07T01:42:19;1.40;;;0.80;;
10831;SDS011;5469;48.574;8.768;2023-05-07T01:44:53;1.27;;;0.70;;
10831;SDS011;5469;48.574;8.768;2023-05-07T01:47:26;0.70;;;0.70;;
10831;SDS011;5469;48.574;8.768;2023-05-07T01:50:00;1.30;;;0.73;;
10831;SDS011;5469;48.574;8.768;2023-05-07T01:52:33;1.97;;;1.23;;
10831;SDS011;5469;48.574;8.768;2023-05-07T01:55:09;1.23;;;0.93;;
10831;SDS011;5469;48.574;8.768;2023-05-07T01:57:42;0.70;;;0.70;;
10831;SDS011;5469;48.574;8.768;2023-05-07T02:00:16;0.60;;;0.60;;
10831;SDS011;5469;48.574;8.768;2023-05-07T02:02:50;0.70;;;0.70;;
10831;SDS011;5469;48.574;8.768;2023-05-07T02:05:24;1.33;;;0.90;;
10831;SDS011;5469;48.574;8.768;2023-05-07T02:07:57;0.97;;;0.80;;
10831;SDS011;5469;48.574;8.768;2023-05-07T02:10:32;0.87;;;0.80;;
10831;SDS011;5469;48.574;8.768;2023-05-07T02:13:05;1.00;;;0.70;;
10831;SDS011;5469;48.574;8.768;2023-05-07T02:15:38;1.97;;;1.00;;
10831;SDS011;5469;48.574;8.768;2023-05-07T02:18:12;1.00;;;0.90;;
10831;SDS011;5469;48.574;8.768;2023-05-07T02:20:45;3.47;;;0.87;;
10831;SDS011;5469;48.574;8.768;2023-05-07T02:23:19;0.87;;;0.83;;
10831;SDS011;5469;48.574;8.768;2023-05-07T02:25:53;1.13;;;1.00;;
10831;SDS011;5469;48.574;8.768;2023-05-07T02:28:27;1.13;;;0.73;;
10831;SDS011;5469;48.574;8.768;2023-05-07T02:31:00;1.20;;;0.80;;
10831;SDS011;5469;48.574;8.768;2023-05-07T02:33:35;0.90;;;0.90;;
10831;SDS011;5469;48.574;8.768;2023-05-07T02:36:09;2.30;;;1.10;;
10831;SDS011;5469;48.574;8.768;2023-05-07T02:38:44;0.63;;;0.63;;
10831;SDS011;5469;48.574;8.768;2023-05-07T02:41:18;2.67;;;1.00;;
10831;SDS011;5469;48.574;8.768;2023-05-07T02:43:52;0.90;;;0.63;;
10831;SDS011;5469;48.574;8.768;2023-05-07T02:46:25;0.70;;;0.70;;
10831;SDS011;5469;48.574;8.768;2023-05-07T02:48:58;0.93;;;0.83;;
10831;SDS011;5469;48.574;8.768;2023-05-07T02:51:32;1.13;;;1.03;;
10831;SDS011;5469;48.574;8.768;2023-05-07T02:54:05;1.10;;;1.00;;
10831;SDS011;5469;48.574;8.768;2023-05-07T02:56:40;1.00;;;0.90;;
10831;SDS011;5469;48.574;8.768;2023-05-07T02:59:13;1.33;;;1.13;;
10831;SDS011;5469;48.574;8.768;2023-05-07T03:01:46;0.73;;;0.67;;
10831;SDS011;5469;48.574;8.768;2023-05-07T03:04:20;1.33;;;0.80;;
10831;SDS011;5469;48.574;8.768;2023-05-07T03:06:53;1.03;;;0.83;;
10831;SDS011;5469;48.574;8.768;2023-05-07T03:09:26;1.63;;;1.00;;
10831;SDS011;5469;48.574;8.768;2023-05-07T03:12:01;1.33;;;1.10;;
10831;SDS011;5469;48.574;8.768;2023-05-07T03:14:34;1.23;;;1.13;;
10831;SDS011;5469;48.574;8.768;2023-05-07T03:17:08;0.77;;;0.77;;
10831;SDS011;5469;48.574;8.768;2023-05-07T03:19:41;0.87;;;0.87;;
10831;SDS011;5469;48.574;8.768;2023-05-07T03:22:14;0.83;;;0.83;;
10831;SDS011;5469;48.574;8.768;2023-05-07T03:24:48;1.20;;;1.00;;
10831;SDS011;5469;48.574;8.768;2023-05-07T03:27:23;0.60;;;0.60;;
10831;SDS011;5469;48.574;8.768;2023-05-07T03:29:56;0.93;;;0.77;;
10831;SDS011;5469;48.574;8.768;2023-05-07T03:32:29;0.93;;;0.80;;
10831;SDS011;5469;48.574;8.768;2023-05-07T03:35:03;0.83;;;0.73;;
10831;SDS011;5469;48.574;8.768;2023-05-07T03:37:37;0.90;;;0.90;;
10831;SDS011;5469;48.574;8.768;2023-05-07T03:40:11;1.30;;;0.70;;
10831;SDS011;5469;48.574;8.768;2023-05-07T03:42:46;3.73;;;1.10;;
10831;SDS011;5469;48.574;8.768;2023-05-07T03:45:19;0.80;;;0.80;;
10831;SDS011;5469;48.574;8.768;2023-05-07T03:47:52;1.03;;;0.63;;
10831;SDS011;5469;48.574;8.768;2023-05-07T03:50:26;2.00;;;1.00;;
10831;SDS011;5469;48.574;8.768;2023-05-07T03:52:59;0.90;;;0.83;;
10831;SDS011;5469;48.574;8.768;2023-05-07T03:55:32;0.93;;;0.80;;
10831;SDS011;5469;48.574;8.768;2023-05-07T03:58:08;1.20;;;1.10;;
10831;SDS011;5469;48.574;8.768;2023-05-07T04:00:41;0.97;;;0.97;;
10831;SDS011;5469;48.574;8.768;2023-05-07T04:03:14;0.80;;;0.80;;
10831;SDS011;5469;48.574;8.768;2023-05-07T04:05:48;1.03;;;0.93;;
10831;SDS011;5469;48.574;8.768;2023-05-07T04:08:21;0.70;;;0.70;;
10831;SDS011;5469;48.574;8.768;2023-05-07T04:10:55;1.00;;;0.90;;
10831;SDS011;5469;48.574;8.768;2023-05-07T04:13:30;0.87;;;0.83;;
10831;SDS011;5469;48.574;8.768;2023-05-07T04:16:04;0.80;;;0.80;;
10831;SDS011;5469;48.574;8.768;2023-05-07T04:18:38;1.50;;;0.83;;
10831;SDS011;5469;48.574;8.768;2023-05-07T04:21:14;0.87;;;0.80;;
10831;SDS011;5469;48.574;8.768;2023-05-07T04:23:48;1.23;;;0.70;;
10831;SDS011;5469;48.574;8.768;2023-05-07T04:26:22;0.87;;;0.87;;
10831;SDS011;5469;48.574;8.768;2023-05-07T04:28:57;0.70;;;0.70;;
10831;SDS011;5469;48.574;8.768;2023-05-07T04:31:31;1.10;;;0.70;;
10831;SDS011;5469;48.574;8.768;2023-05-07T04:34:04;1.53;;;0.80;;
10831;SDS011;5469;48.574;8.768;2023-05-07T04:36:38;1.03;;;0.90;;
10831;SDS011;5469;48.574;8.768;2023-05-07T04:39:12;0.90;;;0.50;;
10831;SDS011;5469;48.574;8.768;2023-05-07T04:41:45;0.93;;;0.77;;
10831;SDS011;5469;48.574;8.768;2023-05-07T04:44:20;2.73;;;1.00;;
10831;SDS011;5469;48.574;8.768;2023-05-07T04:46:53;1.00;;;0.90;;
10831;SDS011;5469;48.574;8.768;2023-05-07T04:49:26;0.67;;;0.67;;
10831;SDS011;5469;48.574;8.768;2023-05-07T04:51:59;2.27;;;0.97;;
10831;SDS011;5469;48.574;8.768;2023-05-07T04:54:33;0.90;;;0.90;;
10831;SDS011;5469;48.574;8.768;2023-05-07T04:57:06;2.77;;;0.70;;
10831;SDS011;5469;48.574;8.768;2023-05-07T04:59:41;0.93;;;0.60;;
10831;SDS011;5469;48.574;8.768;2023-05-07T05:02:15;3.40;;;0.77;;
10831;SDS011;5469;48.574;8.768;2023-05-07T05:04:48;0.40;;;0.40;;
10831;SDS011;5469;48.574;8.768;2023-05-07T05:07:21;0.70;;;0.70;;
10831;SDS011;5469;48.574;8.768;2023-05-07T05:09:55;0.60;;;0.60;;
10831;SDS011;5469;48.574;8.768;2023-05-07T05:12:29;1.20;;;1.10;;
10831;SDS011;5469;48.574;8.768;2023-05-07T05:15:04;0.77;;;0.77;;
10831;SDS011;5469;48.574;8.768;2023-05-07T05:17:38;0.60;;;0.60;;
10831;SDS011;5469;48.574;8.768;2023-05-07T05:20:11;0.73;;;0.73;;
10831;SDS011;5469;48.574;8.768;2023-05-07T05:22:45;0.63;;;0.63;;
10831;SDS011;5469;48.574;8.768;2023-05-07T05:25:19;1.07;;;0.80;;
10831;SDS011;5469;48.574;8.768;2023-05-07T05:27:52;0.70;;;0.70;;
10831;SDS011;5469;48.574;8.768;2023-05-07T05:30:27;0.60;;;0.60;;
10831;SDS011;5469;48.574;8.768;2023-05-07T05:33:00;0.70;;;0.70;;
10831;SDS011;5469;48.574;8.768;2023-05-07T05:35:33;0.80;;;0.80;;
10831;SDS011;5469;48.574;8.768;2023-05-07T05:38:07;0.90;;;0.87;;
10831;SDS011;5469;48.574;8.768;2023-05-07T05:40:40;1.27;;;0.80;;
10831;SDS011;5469;48.574;8.768;2023-05-07T05:43:14;2.27;;;0.90;;
10831;SDS011;5469;48.574;8.768;2023-05-07T05:45:49;0.90;;;0.80;;
10831;SDS011;5469;48.574;8.768;2023-05-07T05:48:22;1.63;;;0.80;;
10831;SDS011;5469;48.574;8.768;2023-05-07T05:50:56;1.20;;;0.70;;
10831;SDS011;5469;48.574;8.768;2023-05-07T05:53:29;1.47;;;0.90;;
10831;SDS011;5469;48.574;8.768;2023-05-07T05:56:03;1.23;;;0.90;;
10831;SDS011;5469;48.574;8.768;2023-05-07T05:58:36;0.50;;;0.50;;
10831;SDS011;5469;48.574;8.768;2023-05-07T06:01:11;1.60;;;1.10;;
10831;SDS011;5469;48.574;8.768;2023-05-07T06:03:44;1.27;;;1.10;;
10831;SDS011;5469;48.574;8.768;2023-05-07T06:06:18;1.40;;;0.80;;
10831;SDS011;5469;48.574;8.768;2023-05-07T06:08:51;0.80;;;0.80;;
10831;SDS011;5469;48.574;8.768;2023-05-07T06:11:25;1.43;;;1.00;;
10831;SDS011;5469;48.574;8.768;2023-05-07T06:13:58;1.23;;;0.90;;
10831;SDS011;5469;48.574;8.768;2023-05-07T06:16:33;1.10;;;0.80;;
10831;SDS011;5469;48.574;8.768;2023-05-07T06:19:07;0.90;;;0.90;;
10831;SDS011;5469;48.574;8.768;2023-05-07T06:21:40;0.97;;;0.83;;
10831;SDS011;5469;48.574;8.768;2023-05-07T06:24:13;2.83;;;0.90;;
10831;SDS011;5469;48.574;8.768;2023-05-07T06:26:47;5.50;;;0.90;;
10831;SDS011;5469;48.574;8.768;2023-05-07T06:29:20;1.07;;;0.90;;
10831;SDS011;5469;48.574;8.768;2023-05-07T06:31:55;1.37;;;1.17;;
10831;SDS011;5469;48.574;8.768;2023-05-07T06:34:28;1.10;;;1.00;;
10831;SDS011;5469;48.574;8.768;2023-05-07T06:37:02;0.97;;;0.93;;
10831;SDS011;5469;48.574;8.768;2023-05-07T06:39:35;0.93;;;0.87;;
10831;SDS011;5469;48.574;8.768;2023-05-07T06:42:09;0.90;;;0.70;;
10831;SDS011;5469;48.574;8.768;2023-05-07T06:44:42;1.20;;;1.10;;
10831;SDS011;5469;48.574;8.768;2023-05-07T06:47:17;0.80;;;0.80;;
10831;SDS011;5469;48.574;8.768;2023-05-07T06:49:50;1.03;;;0.93;;
10831;SDS011;5469;48.574;8.768;2023-05-07T06:52:23;1.37;;;1.27;;
10831;SDS011;5469;48.574;8.768;2023-05-07T06:54:57;2.60;;;0.93;;
10831;SDS011;5469;48.574;8.768;2023-05-07T06:57:31;1.23;;;1.13;;
10831;SDS011;5469;48.574;8.768;2023-05-07T07:00:05;1.00;;;0.80;;
10831;SDS011;5469;48.574;8.768;2023-05-07T07:02:42;0.80;;;0.80;;
10831;SDS011;5469;48.574;8.768;2023-05-07T07:05:15;2.63;;;1.00;;
10831;SDS011;5469;48.574;8.768;2023-05-07T07:07:48;1.37;;;1.13;;
10831;SDS011;5469;48.574;8.768;2023-05-07T07:10:24;1.20;;;1.10;;
10831;SDS011;5469;48.574;8.768;2023-05-07T07:12:57;1.20;;;0.90;;
10831;SDS011;5469;48.574;8.768;2023-05-07T07:15:31;1.03;;;0.90;;
10831;SDS011;5469;48.574;8.768;2023-05-07T07:18:06;1.33;;;1.00;;
10831;SDS011;5469;48.574;8.768;2023-05-07T07:20:39;1.13;;;1.10;;
10831;SDS011;5469;48.574;8.768;2023-05-07T07:23:12;1.20;;;0.93;;
10831;SDS011;5469;48.574;8.768;2023-05-07T07:25:46;1.00;;;1.00;;
10831;SDS011;5469;48.574;8.768;2023-05-07T07:28:20;2.97;;;1.13;;
10831;SDS011;5469;48.574;8.768;2023-05-07T07:30:54;0.83;;;0.83;;
10831;SDS011;5469;48.574;8.768;2023-05-07T07:33:28;1.70;;;0.90;;
10831;SDS011;5469;48.574;8.768;2023-05-07T07:36:02;1.20;;;1.10;;
10831;SDS011;5469;48.574;8.768;2023-05-07T07:38:37;0.90;;;0.90;;
10831;SDS011;5469;48.574;8.768;2023-05-07T07:41:10;0.90;;;0.90;;
10831;SDS011;5469;48.574;8.768;2023-05-07T07:43:43;1.10;;;1.00;;
10831;SDS011;5469;48.574;8.768;2023-05-07T07:46:18;0.70;;;0.70;;
10831;SDS011;5469;48.574;8.768;2023-05-07T07:48:53;1.43;;;1.00;;
10831;SDS011;5469;48.574;8.768;2023-05-07T07:51:26;1.40;;;1.20;;
10831;SDS011;5469;48.574;8.768;2023-05-07T07:53:59;1.13;;;1.00;;
10831;SDS011;5469;48.574;8.768;2023-05-07T07:56:34;1.00;;;0.90;;
10831;SDS011;5469;48.574;8.768;2023-05-07T07:59:07;3.63;;;0.87;;
10831;SDS011;5469;48.574;8.768;2023-05-07T08:01:41;1.07;;;1.07;;
10831;SDS011;5469;48.574;8.768;2023-05-07T08:04:15;0.93;;;0.93;;
10831;SDS011;5469;48.574;8.768;2023-05-07T08:06:49;0.83;;;0.83;;
10831;SDS011;5469;48.574;8.768;2023-05-07T08:09:22;2.07;;;1.20;;
10831;SDS011;5469;48.574;8.768;2023-05-07T08:11:56;1.10;;;1.00;;
10831;SDS011;5469;48.574;8.768;2023-05-07T08:14:29;1.47;;;1.30;;
10831;SDS011;5469;48.574;8.768;2023-05-07T08:17:06;1.70;;;1.13;;
10831;SDS011;5469;48.574;8.768;2023-05-07T08:19:42;1.97;;;1.33;;
10831;SDS011;5469;48.574;8.768;2023-05-07T08:22:16;1.20;;;1.03;;
10831;SDS011;5469;48.574;8.768;2023-05-07T08:24:50;1.13;;;1.03;;
10831;SDS011;5469;48.574;8.768;2023-05-07T08:27:25;1.07;;;1.00;;
10831;SDS011;5469;48.574;8.768;2023-05-07T08:29:59;1.77;;;1.07;;
10831;SDS011;5469;48.574;8.768;2023-05-07T08:32:32;1.20;;;1.10;;
10831;SDS011;5469;48.574;8.768;2023-05-07T08:35:08;2.13;;;1.10;;
10831;SDS011;5469;48.574;8.768;2023-05-07T08:37:42;1.27;;;1.17;;
10831;SDS011;5469;48.574;8.768;2023-05-07T08:40:15;1.60;;;0.97;;
10831;SDS011;5469;48.574;8.768;2023-05-07T08:42:49;1.20;;;1.10;;
10831;SDS011;5469;48.574;8.768;2023-05-07T08:45:25;1.63;;;1.10;;
10831;SDS011;5469;48.574;8.768;2023-05-07T08:48:01;2.23;;;1.07;;
10831;SDS011;5469;48.574;8.768;2023-05-07T08:50:39;2.00;;;1.40;;
10831;SDS011;5469;48.574;8.768;2023-05-07T08:53:13;3.43;;;1.27;;
10831;SDS011;5469;48.574;8.768;2023-05-07T08:55:49;1.40;;;1.30;;
10831;SDS011;5469;48.574;8.768;2023-05-07T08:58:23;1.90;;;1.57;;
10831;SDS011;5469;48.574;8.768;2023-05-07T09:00:56;2.57;;;1.33;;
10831;SDS011;5469;48.574;8.768;2023-05-07T09:03:31;1.70;;;1.20;;
10831;SDS011;5469;48.574;8.768;2023-05-07T09:06:06;2.23;;;1.70;;
10831;SDS011;5469;48.574;8.768;2023-05-07T09:08:40;1.40;;;1.10;;
10831;SDS011;5469;48.574;8.768;2023-05-07T09:11:13;1.50;;;1.20;;
10831;SDS011;5469;48.574;8.768;2023-05-07T09:13:47;1.50;;;1.30;;
10831;SDS011;5469;48.574;8.768;2023-05-07T09:16:21;1.57;;;1.47;;
10831;SDS011;5469;48.574;8.768;2023-05-07T09:18:57;5.40;;;1.37;;
10831;SDS011;5469;48.574;8.768;2023-05-07T09:21:33;2.67;;;1.53;;
10831;SDS011;5469;48.574;8.768;2023-05-07T09:24:08;2.00;;;1.13;;
10831;SDS011;5469;48.574;8.768;2023-05-07T09:26:42;1.80;;;1.10;;
10831;SDS011;5469;48.574;8.768;2023-05-07T09:29:15;1.37;;;1.27;;
10831;SDS011;5469;48.574;8.768;2023-05-07T09:31:49;1.20;;;1.10;;
10831;SDS011;5469;48.574;8.768;2023-05-07T09:34:23;4.03;;;1.57;;
10831;SDS011;5469;48.574;8.768;2023-05-07T09:36:58;1.70;;;1.33;;
10831;SDS011;5469;48.574;8.768;2023-05-07T09:39:42;1.60;;;1.23;;
10831;SDS011;5469;48.574;8.768;2023-05-07T09:42:22;1.27;;;1.17;;
10831;SDS011;5469;48.574;8.768;2023-05-07T09:44:56;1.20;;;1.10;;
10831;SDS011;5469;48.574;8.768;2023-05-07T09:47:32;1.20;;;1.10;;
10831;SDS011;5469;48.574;8.768;2023-05-07T09:50:09;0.70;;;0.70;;
10831;SDS011;5469;48.574;8.768;2023-05-07T09:52:46;3.20;;;1.17;;
10831;SDS011;5469;48.574;8.768;2023-05-07T09:55:21;1.03;;;0.97;;
10831;SDS011;5469;48.574;8.768;2023-05-07T09:57:55;0.90;;;0.90;;
10831;SDS011;5469;48.574;8.768;2023-05-07T10:00:30;0.90;;;0.90;;
10831;SDS011;5469;48.574;8.768;2023-05-07T10:03:05;3.40;;;0.97;;
10831;SDS011;5469;48.574;8.768;2023-05-07T10:05:39;0.97;;;0.80;;
10831;SDS011;5469;48.574;8.768;2023-05-07T10:08:14;1.13;;;1.03;;
10831;SDS011;5469;48.574;8.768;2023-05-07T10:10:48;0.70;;;0.70;;
10831;SDS011;5469;48.574;8.768;2023-05-07T10:13:22;0.60;;;0.60;;
10831;SDS011;5469;48.574;8.768;2023-05-07T10:15:56;0.80;;;0.80;;
10831;SDS011;5469;48.574;8.768;2023-05-07T10:18:30;1.40;;;1.10;;
10831;SDS011;5469;48.574;8.768;2023-05-07T10:21:06;4.33;;;2.50;;
10831;SDS011;5469;48.574;8.768;2023-05-07T10:23:42;9.23;;;4.80;;
10831;SDS011;5469;48.574;8.768;2023-05-07T10:26:19;8.37;;;3.70;;
10831;SDS011;5469;48.574;8.768;2023-05-07T10:28:56;7.17;;;4.50;;
10831;SDS011;5469;48.574;8.768;2023-05-07T10:31:39;7.47;;;3.50;;
10831;SDS011;5469;48.574;8.768;2023-05-07T10:34:24;5.20;;;3.70;;
10831;SDS011;5469;48.574;8.768;2023-05-07T10:37:02;9.10;;;3.20;;
10831;SDS011;5469;48.574;8.768;2023-05-07T10:39:38;4.07;;;2.90;;
10831;SDS011;5469;48.574;8.768;2023-05-07T10:42:12;2.90;;;2.50;;
10831;SDS011;5469;48.574;8.768;2023-05-07T10:44:46;1.88;;;1.75;;
10831;SDS011;5469;48.574;8.768;2023-05-07T10:47:20;1.38;;;1.27;;
10831;SDS011;5469;48.574;8.768;2023-05-07T11:02:07;18.70;;;12.52;;
10831;SDS011;5469;48.574;8.768;2023-05-07T11:04:42;37.38;;;24.00;;
10831;SDS011;5469;48.574;8.768;2023-05-07T11:07:21;44.83;;;28.50;;
10831;SDS011;5469;48.574;8.768;2023-05-07T11:10:04;43.00;;;26.75;;
10831;SDS011;5469;48.574;8.768;2023-05-07T11:12:50;55.22;;;32.67;;
10831;SDS011;5469;48.574;8.768;2023-05-07T11:18:23;29.48;;;20.92;;
10831;SDS011;5469;48.574;8.768;2023-05-07T11:20:56;27.80;;;19.00;;
10831;SDS011;5469;48.574;8.768;2023-05-07T11:26:43;19.38;;;14.30;;
10831;SDS011;5469;48.574;8.768;2023-05-07T11:29:20;19.17;;;13.63;;
10831;SDS011;5469;48.574;8.768;2023-05-07T11:31:54;9.60;;;6.60;;
10831;SDS011;5469;48.574;8.768;2023-05-07T11:34:29;4.95;;;4.20;;
10831;SDS011;5469;48.574;8.768;2023-05-07T11:37:03;3.20;;;2.70;;
10831;SDS011;5469;48.574;8.768;2023-05-07T11:39:37;2.20;;;1.55;;
10831;SDS011;5469;48.574;8.768;2023-05-07T11:42:24;1.50;;;1.15;;
10831;SDS011;5469;48.574;8.768;2023-05-07T11:45:00;1.35;;;1.20;;
10831;SDS011;5469;48.574;8.768;2023-05-07T11:47:34;1.00;;;1.00;;
10831;SDS011;5469;48.574;8.768;2023-05-07T11:50:08;0.80;;;0.80;;
10831;SDS011;5469;48.574;8.768;2023-05-07T11:52:49;0.75;;;0.75;;
10831;SDS011;5469;48.574;8.768;2023-05-07T11:55:24;2.97;;;1.00;;
10831;SDS011;5469;48.574;8.768;2023-05-07T11:57:58;0.80;;;0.80;;
10831;SDS011;5469;48.574;8.768;2023-05-07T12:00:33;1.67;;;0.88;;
10831;SDS011;5469;48.574;8.768;2023-05-07T12:03:06;0.73;;;0.73;;
10831;SDS011;5469;48.574;8.768;2023-05-07T12:05:40;0.73;;;0.73;;
10831;SDS011;5469;48.574;8.768;2023-05-07T12:08:13;0.70;;;0.60;;
10831;SDS011;5469;48.574;8.768;2023-05-07T12:10:48;0.77;;;0.77;;
10831;SDS011;5469;48.574;8.768;2023-05-07T12:13:23;0.50;;;0.50;;
10831;SDS011;5469;48.574;8.768;2023-05-07T12:15:59;3.38;;;0.80;;
10831;SDS011;5469;48.574;8.768;2023-05-07T12:18:35;2.88;;;0.75;;
10831;SDS011;5469;48.574;8.768;2023-05-07T12:21:09;0.95;;;0.65;;
10831;SDS011;5469;48.574;8.768;2023-05-07T12:23:42;0.55;;;0.55;;
10831;SDS011;5469;48.574;8.768;2023-05-07T12:26:18;1.13;;;0.95;;
10831;SDS011;5469;48.574;8.768;2023-05-07T12:28:52;1.13;;;0.68;;
10831;SDS011;5469;48.574;8.768;2023-05-07T12:31:27;1.00;;;0.90;;
10831;SDS011;5469;48.574;8.768;2023-05-07T12:34:01;2.05;;;0.88;;
10831;SDS011;5469;48.574;8.768;2023-05-07T12:36:38;0.93;;;0.70;;
10831;SDS011;5469;48.574;8.768;2023-05-07T12:39:13;0.80;;;0.77;;
10831;SDS011;5469;48.574;8.768;2023-05-07T12:41:52;1.40;;;0.93;;
10831;SDS011;5469;48.574;8.768;2023-05-07T12:44:29;3.25;;;0.88;;
10831;SDS011;5469;48.574;8.768;2023-05-07T12:47:05;1.38;;;0.93;;
10831;SDS011;5469;48.574;8.768;2023-05-07T12:49:39;33.73;;;10.47;;
10831;SDS011;5469;48.574;8.768;2023-05-07T12:52:14;29.33;;;9.40;;
10831;SDS011;5469;48.574;8.768;2023-05-07T12:54:48;44.07;;;15.40;;
10831;SDS011;5469;48.574;8.768;2023-05-07T12:57:21;38.03;;;14.43;;
10831;SDS011;5469;48.574;8.768;2023-05-07T12:59:57;27.13;;;10.23;;
10831;SDS011;5469;48.574;8.768;2023-05-07T13:02:33;19.30;;;8.37;;
10831;SDS011;5469;48.574;8.768;2023-05-07T13:05:07;147.60;;;49.07;;
10831;SDS011;5469;48.574;8.768;2023-05-07T13:07:51;173.73;;;51.20;;
10831;SDS011;5469;48.574;8.768;2023-05-07T13:10:26;78.07;;;29.00;;
10831;SDS011;5469;48.574;8.768;2023-05-07T13:13:00;55.53;;;19.30;;
10831;SDS011;5469;48.574;8.768;2023-05-07T13:15:34;45.37;;;14.43;;
10831;SDS011;5469;48.574;8.768;2023-05-07T13:18:09;34.33;;;11.30;;
10831;SDS011;5469;48.574;8.768;2023-05-07T13:20:43;22.47;;;9.10;;
10831;SDS011;5469;48.574;8.768;2023-05-07T13:23:17;14.43;;;6.13;;
10831;SDS011;5469;48.574;8.768;2023-05-07T13:25:51;14.37;;;5.30;;
10831;SDS011;5469;48.574;8.768;2023-05-07T13:28:25;4.97;;;2.60;;
10831;SDS011;5469;48.574;8.768;2023-05-07T13:30:59;5.77;;;2.63;;
10831;SDS011;5469;48.574;8.768;2023-05-07T13:33:34;4.00;;;2.63;;
10831;SDS011;5469;48.574;8.768;2023-05-07T13:36:08;4.30;;;1.97;;
10831;SDS011;5469;48.574;8.768;2023-05-07T13:38:42;3.67;;;2.10;;
10831;SDS011;5469;48.574;8.768;2023-05-07T13:41:16;4.43;;;2.10;;
10831;SDS011;5469;48.574;8.768;2023-05-07T13:43:50;8.27;;;2.17;;
10831;SDS011;5469;48.574;8.768;2023-05-07T13:46:23;2.50;;;1.63;;
10831;SDS011;5469;48.574;8.768;2023-05-07T13:48:59;2.73;;;1.40;;
10831;SDS011;5469;48.574;8.768;2023-05-07T13:51:32;3.23;;;1.17;;
10831;SDS011;5469;48.574;8.768;2023-05-07T13:54:06;3.43;;;1.73;;
10831;SDS011;5469;48.574;8.768;2023-05-07T13:56:40;3.83;;;1.43;;
10831;SDS011;5469;48.574;8.768;2023-05-07T13:59:14;1.90;;;1.10;;
10831;SDS011;5469;48.574;8.768;2023-05-07T14:01:47;1.47;;;1.10;;
10831;SDS011;5469;48.574;8.768;2023-05-07T14:04:22;2.10;;;1.00;;
10831;SDS011;5469;48.574;8.768;2023-05-07T14:06:56;2.67;;;1.20;;
10831;SDS011;5469;48.574;8.768;2023-05-07T14:09:29;1.00;;;0.87;;
10831;SDS011;5469;48.574;8.768;2023-05-07T14:12:03;2.80;;;1.17;;
10831;SDS011;5469;48.574;8.768;2023-05-07T14:14:37;4.63;;;1.40;;
10831;SDS011;5469;48.574;8.768;2023-05-07T14:17:11;1.23;;;1.03;;
10831;SDS011;5469;48.574;8.768;2023-05-07T14:19:46;1.20;;;0.80;;
10831;SDS011;5469;48.574;8.768;2023-05-07T14:22:20;1.40;;;1.00;;
10831;SDS011;5469;48.574;8.768;2023-05-07T14:24:53;0.87;;;0.87;;
10831;SDS011;5469;48.574;8.768;2023-05-07T14:27:27;4.40;;;0.90;;
10831;SDS011;5469;48.574;8.768;2023-05-07T14:30:00;0.63;;;0.63;;
10831;SDS011;5469;48.574;8.768;2023-05-07T14:32:34;1.80;;;1.00;;
10831;SDS011;5469;48.574;8.768;2023-05-07T14:35:09;0.80;;;0.73;;
10831;SDS011;5469;48.574;8.768;2023-05-07T14:37:43;0.67;;;0.67;;
10831;SDS011;5469;48.574;8.768;2023-05-07T14:40:16;0.90;;;0.70;;
10831;SDS011;5469;48.574;8.768;2023-05-07T14:42:50;2.83;;;0.80;;
10831;SDS011;5469;48.574;8.768;2023-05-07T14:45:23;0.70;;;0.70;;
10831;SDS011;5469;48.574;8.768;2023-05-07T14:47:57;1.17;;;0.90;;
10831;SDS011;5469;48.574;8.768;2023-05-07T14:50:32;1.67;;;0.70;;
10831;SDS011;5469;48.574;8.768;2023-05-07T14:53:05;2.57;;;0.90;;
10831;SDS011;5469;48.574;8.768;2023-05-07T14:55:39;3.97;;;1.00;;
10831;SDS011;5469;48.574;8.768;2023-05-07T14:58:12;0.97;;;0.87;;
10831;SDS011;5469;48.574;8.768;2023-05-07T15:00:46;0.70;;;0.70;;
10831;SDS011;5469;48.574;8.768;2023-05-07T15:03:19;0.90;;;0.90;;
10831;SDS011;5469;48.574;8.768;2023-05-07T15:05:54;0.50;;;0.50;;
10831;SDS011;5469;48.574;8.768;2023-05-07T15:08:28;2.60;;;0.87;;
10831;SDS011;5469;48.574;8.768;2023-05-07T15:11:01;0.80;;;0.80;;
10831;SDS011;5469;48.574;8.768;2023-05-07T15:13:35;0.70;;;0.60;;
10831;SDS011;5469;48.574;8.768;2023-05-07T15:16:08;0.83;;;0.83;;
10831;SDS011;5469;48.574;8.768;2023-05-07T15:18:42;0.60;;;0.60;;
10831;SDS011;5469;48.574;8.768;2023-05-07T15:21:17;1.90;;;0.87;;
10831;SDS011;5469;48.574;8.768;2023-05-07T15:23:51;0.87;;;0.87;;
10831;SDS011;5469;48.574;8.768;2023-05-07T15:26:24;0.90;;;0.90;;
10831;SDS011;5469;48.574;8.768;2023-05-07T15:28:58;3.57;;;1.00;;
10831;SDS011;5469;48.574;8.768;2023-05-07T15:31:35;0.50;;;0.50;;
10831;SDS011;5469;48.574;8.768;2023-05-07T15:34:09;2.23;;;0.90;;
10831;SDS011;5469;48.574;8.768;2023-05-07T15:36:45;1.00;;;0.63;;
10831;SDS011;5469;48.574;8.768;2023-05-07T15:39:18;0.77;;;0.53;;
10831;SDS011;5469;48.574;8.768;2023-05-07T15:41:52;0.50;;;0.50;;
10831;SDS011;5469;48.574;8.768;2023-05-07T15:44:26;1.10;;;0.70;;
10831;SDS011;5469;48.574;8.768;2023-05-07T15:47:02;1.83;;;0.97;;
10831;SDS011;5469;48.574;8.768;2023-05-07T15:49:36;0.60;;;0.60;;
10831;SDS011;5469;48.574;8.768;2023-05-07T15:52:11;1.90;;;0.70;;
10831;SDS011;5469;48.574;8.768;2023-05-07T15:54:46;3.20;;;0.90;;
10831;SDS011;5469;48.574;8.768;2023-05-07T15:57:20;1.13;;;0.80;;
10831;SDS011;5469;48.574;8.768;2023-05-07T15:59:54;1.23;;;0.90;;
10831;SDS011;5469;48.574;8.768;2023-05-07T16:02:27;0.70;;;0.70;;